sensor_id;sensor_type;location;lat;lon;timestamp;pressure;altitude;pressure_sealevel;temperature;humidity
42105;BME280;68365;51.472;5.712;2023-04-26T00:00:24;101719.56;;;15.25;100.00
42105;BME280;68365;51.472;5.712;2023-04-26T00:02:49;101715.34;;;15.24;100.00
42105;BME280;68365;51.472;5.712;2023-04-26T00:05:15;101717.09;;;15.23;100.00
42105;BME280;68365;51.472;5.712;2023-04-26T00:07:42;101710.41;;;15.21;100.00
42105;BME280;68365;51.472;5.712;2023-04-26T00:10:09;101715.00;;;15.19;100.00
42105;BME280;68365;51.472;5.712;2023-04-26T00:12:36;101719.25;;;15.20;100.00
42105;BME280;68365;51.472;5.712;2023-04-26T00:15:05;101720.06;;;15.20;100.00
42105;BME280;68365;51.472;5.712;2023-04-26T00:17:32;101719.41;;;15.18;100.00
42105;BME280;68365;51.472;5.712;2023-04-26T00:19:58;101719.25;;;15.20;100.00
42105;BME280;68365;51.472;5.712;2023-04-26T00:22:24;101716.00;;;15.18;100.00
42105;BME280;68365;51.472;5.712;2023-04-26T00:24:50;101713.19;;;15.19;100.00
42105;BME280;68365;51.472;5.712;2023-04-26T00:27:16;101710.91;;;15.16;100.00
42105;BME280;68365;51.472;5.712;2023-04-26T00:29:42;101704.22;;;15.14;100.00
42105;BME280;68365;51.472;5.712;2023-04-26T00:32:08;101706.50;;;15.17;100.00
42105;BME280;68365;51.472;5.712;2023-04-26T00:34:35;101709.28;;;15.15;100.00
42105;BME280;68365;51.472;5.712;2023-04-26T00:37:02;101714.50;;;15.15;100.00
42105;BME280;68365;51.472;5.712;2023-04-26T00:39:28;101705.34;;;15.11;100.00
42105;BME280;68365;51.472;5.712;2023-04-26T00:41:55;101702.94;;;15.09;100.00
42105;BME280;68365;51.472;5.712;2023-04-26T00:44:21;101714.03;;;15.12;100.00
42105;BME280;68365;51.472;5.712;2023-04-26T00:46:48;101708.81;;;15.12;100.00
42105;BME280;68365;51.472;5.712;2023-04-26T00:49:21;101715.50;;;15.14;100.00
42105;BME280;68365;51.472;5.712;2023-04-26T00:51:47;101710.91;;;15.16;100.00
42105;BME280;68365;51.472;5.712;2023-04-26T00:54:14;101714.84;;;15.12;100.00
42105;BME280;68365;51.472;5.712;2023-04-26T00:56:41;101713.19;;;15.11;100.00
42105;BME280;68365;51.472;5.712;2023-04-26T00:59:07;101709.13;;;15.08;100.00
42105;BME280;68365;51.472;5.712;2023-04-26T01:01:34;101710.78;;;15.09;100.00
42105;BME280;68365;51.472;5.712;2023-04-26T01:04:01;101709.78;;;15.11;100.00
42105;BME280;68365;51.472;5.712;2023-04-26T01:06:34;101705.84;;;15.06;100.00
42105;BME280;68365;51.472;5.712;2023-04-26T01:09:02;101706.19;;;15.03;100.00
42105;BME280;68365;51.472;5.712;2023-04-26T01:11:40;101706.66;;;15.07;100.00
42105;BME280;68365;51.472;5.712;2023-04-26T01:14:06;101701.78;;;15.04;100.00
42105;BME280;68365;51.472;5.712;2023-04-26T01:16:34;101708.31;;;15.08;100.00
42105;BME280;68365;51.472;5.712;2023-04-26T01:19:11;101711.91;;;15.07;100.00
42105;BME280;68365;51.472;5.712;2023-04-26T01:21:38;101715.50;;;15.06;100.00
42105;BME280;68365;51.472;5.712;2023-04-26T01:24:04;101721.88;;;15.03;100.00
42105;BME280;68365;51.472;5.712;2023-04-26T01:26:31;101715.81;;;15.03;100.00
42105;BME280;68365;51.472;5.712;2023-04-26T01:29:00;101718.13;;;15.06;100.00
42105;BME280;68365;51.472;5.712;2023-04-26T01:31:26;101714.84;;;15.04;100.00
42105;BME280;68365;51.472;5.712;2023-04-26T01:33:52;101723.84;;;15.01;100.00
42105;BME280;68365;51.472;5.712;2023-04-26T01:36:17;101722.34;;;14.99;100.00
42105;BME280;68365;51.472;5.712;2023-04-26T01:38:43;101729.09;;;15.01;100.00
42105;BME280;68365;51.472;5.712;2023-04-26T01:41:09;101714.69;;;14.97;100.00
42105;BME280;68365;51.472;5.712;2023-04-26T01:43:35;101720.09;;;14.96;100.00
42105;BME280;68365;51.472;5.712;2023-04-26T01:46:00;101719.94;;;14.97;100.00
42105;BME280;68365;51.472;5.712;2023-04-26T01:48:26;101714.69;;;14.97;100.00
42105;BME280;68365;51.472;5.712;2023-04-26T01:50:52;101716.81;;;14.94;100.00
42105;BME280;68365;51.472;5.712;2023-04-26T01:53:18;101717.78;;;14.93;100.00
42105;BME280;68365;51.472;5.712;2023-04-26T01:55:43;101721.06;;;14.95;100.00
42105;BME280;68365;51.472;5.712;2023-04-26T01:58:09;101718.94;;;14.98;100.00
42105;BME280;68365;51.472;5.712;2023-04-26T02:00:36;101717.63;;;14.94;100.00
42105;BME280;68365;51.472;5.712;2023-04-26T02:03:02;101712.91;;;14.98;100.00
42105;BME280;68365;51.472;5.712;2023-04-26T02:05:27;101712.09;;;14.97;100.00
42105;BME280;68365;51.472;5.712;2023-04-26T02:07:53;101716.66;;;14.95;100.00
42105;BME280;68365;51.472;5.712;2023-04-26T02:10:19;101722.69;;;14.96;100.00
42105;BME280;68365;51.472;5.712;2023-04-26T02:12:45;101722.69;;;14.96;100.00
42105;BME280;68365;51.472;5.712;2023-04-26T02:15:11;101724.16;;;14.98;100.00
42105;BME280;68365;51.472;5.712;2023-04-26T02:17:37;101721.25;;;14.93;100.00
42105;BME280;68365;51.472;5.712;2023-04-26T02:20:04;101728.09;;;14.94;100.00
42105;BME280;68365;51.472;5.712;2023-04-26T02:22:31;101719.59;;;14.92;100.00
42105;BME280;68365;51.472;5.712;2023-04-26T02:24:57;101723.19;;;14.91;100.00
42105;BME280;68365;51.472;5.712;2023-04-26T02:27:23;101719.94;;;14.89;100.00
42105;BME280;68365;51.472;5.712;2023-04-26T02:29:49;101711.25;;;14.88;100.00
42105;BME280;68365;51.472;5.712;2023-04-26T02:32:15;101712.91;;;14.89;100.00
42105;BME280;68365;51.472;5.712;2023-04-26T02:34:41;101708.31;;;14.83;100.00
42105;BME280;68365;51.472;5.712;2023-04-26T02:37:07;101713.88;;;14.88;100.00
42105;BME280;68365;51.472;5.712;2023-04-26T02:39:33;101703.75;;;14.85;100.00
42105;BME280;68365;51.472;5.712;2023-04-26T02:41:59;101708.81;;;14.87;100.00
42105;BME280;68365;51.472;5.712;2023-04-26T02:44:29;101708.47;;;14.90;100.00
42105;BME280;68365;51.472;5.712;2023-04-26T02:46:55;101707.66;;;14.89;100.00
42105;BME280;68365;51.472;5.712;2023-04-26T02:49:21;101711.09;;;14.90;100.00
42105;BME280;68365;51.472;5.712;2023-04-26T02:51:47;101712.25;;;14.87;100.00
42105;BME280;68365;51.472;5.712;2023-04-26T02:54:13;101708.81;;;14.87;100.00
42105;BME280;68365;51.472;5.712;2023-04-26T02:56:39;101707.81;;;14.88;100.00
42105;BME280;68365;51.472;5.712;2023-04-26T02:59:05;101704.56;;;14.86;100.00
42105;BME280;68365;51.472;5.712;2023-04-26T03:01:31;101704.91;;;14.83;100.00
42105;BME280;68365;51.472;5.712;2023-04-26T03:03:57;101696.72;;;14.86;100.00
42105;BME280;68365;51.472;5.712;2023-04-26T03:06:23;101701.28;;;14.84;100.00
42105;BME280;68365;51.472;5.712;2023-04-26T03:08:49;101694.44;;;14.83;100.00
42105;BME280;68365;51.472;5.712;2023-04-26T03:11:14;101695.09;;;14.85;100.00
42105;BME280;68365;51.472;5.712;2023-04-26T03:13:40;101694.75;;;14.80;100.00
42105;BME280;68365;51.472;5.712;2023-04-26T03:16:06;101700.47;;;14.83;100.00
42105;BME280;68365;51.472;5.712;2023-04-26T03:18:32;101682.34;;;14.82;100.00
42105;BME280;68365;51.472;5.712;2023-04-26T03:20:58;101693.28;;;14.85;100.00
42105;BME280;68365;51.472;5.712;2023-04-26T03:23:24;101682.50;;;14.80;100.00
42105;BME280;68365;51.472;5.712;2023-04-26T03:25:50;101685.94;;;14.81;100.00
42105;BME280;68365;51.472;5.712;2023-04-26T03:28:16;101688.72;;;14.79;100.00
42105;BME280;68365;51.472;5.712;2023-04-26T03:30:42;101690.69;;;14.77;100.00
42105;BME280;68365;51.472;5.712;2023-04-26T03:33:08;101686.09;;;14.79;100.00
42105;BME280;68365;51.472;5.712;2023-04-26T03:35:34;101681.19;;;14.76;100.00
42105;BME280;68365;51.472;5.712;2023-04-26T03:37:59;101682.69;;;14.79;100.00
42105;BME280;68365;51.472;5.712;2023-04-26T03:40:25;101687.06;;;14.78;100.00
42105;BME280;68365;51.472;5.712;2023-04-26T03:42:51;101682.03;;;14.77;100.00
42105;BME280;68365;51.472;5.712;2023-04-26T03:45:17;101691.66;;;14.76;100.00
42105;BME280;68365;51.472;5.712;2023-04-26T03:47:43;101690.69;;;14.77;100.00
42105;BME280;68365;51.472;5.712;2023-04-26T03:50:09;101683.66;;;14.78;100.00
42105;BME280;68365;51.472;5.712;2023-04-26T03:52:35;101684.66;;;14.77;100.00
42105;BME280;68365;51.472;5.712;2023-04-26T03:55:01;101680.38;;;14.76;100.00
42105;BME280;68365;51.472;5.712;2023-04-26T03:57:27;101682.84;;;14.77;100.00
42105;BME280;68365;51.472;5.712;2023-04-26T03:59:52;101687.06;;;14.78;100.00
42105;BME280;68365;51.472;5.712;2023-04-26T04:02:18;101685.59;;;14.76;100.00
42105;BME280;68365;51.472;5.712;2023-04-26T04:04:44;101681.84;;;14.78;100.00
42105;BME280;68365;51.472;5.712;2023-04-26T04:07:10;101681.38;;;14.75;100.00
42105;BME280;68365;51.472;5.712;2023-04-26T04:09:36;101694.25;;;14.76;100.00
42105;BME280;68365;51.472;5.712;2023-04-26T04:12:02;101690.19;;;14.74;100.00
42105;BME280;68365;51.472;5.712;2023-04-26T04:14:28;101687.56;;;14.74;100.00
42105;BME280;68365;51.472;5.712;2023-04-26T04:16:54;101685.75;;;14.74;100.00
42105;BME280;68365;51.472;5.712;2023-04-26T04:19:19;101686.75;;;14.73;100.00
42105;BME280;68365;51.472;5.712;2023-04-26T04:21:45;101685.94;;;14.73;100.00
42105;BME280;68365;51.472;5.712;2023-04-26T04:24:11;101680.06;;;14.71;100.00
42105;BME280;68365;51.472;5.712;2023-04-26T04:26:37;101691.34;;;14.71;100.00
42105;BME280;68365;51.472;5.712;2023-04-26T04:29:03;101692.94;;;14.72;100.00
42105;BME280;68365;51.472;5.712;2023-04-26T04:31:35;101695.91;;;14.69;100.00
42105;BME280;68365;51.472;5.712;2023-04-26T04:34:00;101689.69;;;14.70;100.00
42105;BME280;68365;51.472;5.712;2023-04-26T04:36:26;101695.75;;;14.71;100.00
42105;BME280;68365;51.472;5.712;2023-04-26T04:38:52;101702.59;;;14.72;100.00
42105;BME280;68365;51.472;5.712;2023-04-26T04:41:18;101697.53;;;14.70;100.00
42105;BME280;68365;51.472;5.712;2023-04-26T04:43:46;101693.28;;;14.69;100.00
42105;BME280;68365;51.472;5.712;2023-04-26T04:46:12;101693.13;;;14.71;100.00
42105;BME280;68365;51.472;5.712;2023-04-26T04:48:38;101704.25;;;14.73;100.00
42105;BME280;68365;51.472;5.712;2023-04-26T04:51:04;101702.75;;;14.70;100.00
42105;BME280;68365;51.472;5.712;2023-04-26T04:53:30;101705.06;;;14.73;100.00
42105;BME280;68365;51.472;5.712;2023-04-26T04:55:56;101700.13;;;14.70;100.00
42105;BME280;68365;51.472;5.712;2023-04-26T04:58:22;101704.41;;;14.71;100.00
42105;BME280;68365;51.472;5.712;2023-04-26T05:00:48;101709.63;;;14.71;100.00
42105;BME280;68365;51.472;5.712;2023-04-26T05:03:15;101712.25;;;14.71;100.00
42105;BME280;68365;51.472;5.712;2023-04-26T05:05:41;101711.44;;;14.71;100.00
42105;BME280;68365;51.472;5.712;2023-04-26T05:08:07;101716.66;;;14.71;100.00
42105;BME280;68365;51.472;5.712;2023-04-26T05:10:33;101714.69;;;14.73;100.00
42105;BME280;68365;51.472;5.712;2023-04-26T05:13:00;101718.44;;;14.70;100.00
42105;BME280;68365;51.472;5.712;2023-04-26T05:15:26;101721.03;;;14.70;100.00
42105;BME280;68365;51.472;5.712;2023-04-26T05:17:52;101728.56;;;14.73;100.00
42105;BME280;68365;51.472;5.712;2023-04-26T05:20:20;101723.34;;;14.73;100.00
42105;BME280;68365;51.472;5.712;2023-04-26T05:22:46;101730.03;;;14.76;100.00
42105;BME280;68365;51.472;5.712;2023-04-26T05:25:12;101727.28;;;14.77;100.00
42105;BME280;68365;51.472;5.712;2023-04-26T05:27:38;101731.69;;;14.77;100.00
42105;BME280;68365;51.472;5.712;2023-04-26T05:30:06;101733.31;;;14.78;100.00
42105;BME280;68365;51.472;5.712;2023-04-26T05:32:32;101735.44;;;14.82;100.00
42105;BME280;68365;51.472;5.712;2023-04-26T05:34:58;101732.81;;;14.82;100.00
42105;BME280;68365;51.472;5.712;2023-04-26T05:37:24;101732.00;;;14.82;100.00
42105;BME280;68365;51.472;5.712;2023-04-26T05:39:50;101728.22;;;14.76;100.00
42105;BME280;68365;51.472;5.712;2023-04-26T05:42:16;101727.78;;;14.81;100.00
42105;BME280;68365;51.472;5.712;2023-04-26T05:44:41;101729.22;;;14.83;100.00
42105;BME280;68365;51.472;5.712;2023-04-26T05:47:09;101730.69;;;14.86;100.00
42105;BME280;68365;51.472;5.712;2023-04-26T05:49:35;101733.00;;;14.81;100.00
42105;BME280;68365;51.472;5.712;2023-04-26T05:52:01;101732.34;;;14.79;100.00
42105;BME280;68365;51.472;5.712;2023-04-26T05:54:28;101734.78;;;14.80;100.00
42105;BME280;68365;51.472;5.712;2023-04-26T05:56:54;101740.66;;;14.82;100.00
42105;BME280;68365;51.472;5.712;2023-04-26T05:59:20;101738.38;;;14.79;100.00
42105;BME280;68365;51.472;5.712;2023-04-26T06:01:45;101743.28;;;14.82;100.00
42105;BME280;68365;51.472;5.712;2023-04-26T06:04:11;101737.38;;;14.80;100.00
42105;BME280;68365;51.472;5.712;2023-04-26T06:06:37;101743.28;;;14.82;100.00
42105;BME280;68365;51.472;5.712;2023-04-26T06:09:03;101740.50;;;14.84;100.00
42105;BME280;68365;51.472;5.712;2023-04-26T06:11:29;101737.56;;;14.87;100.00
42105;BME280;68365;51.472;5.712;2023-04-26T06:13:55;101744.28;;;14.89;100.00
42105;BME280;68365;51.472;5.712;2023-04-26T06:16:22;101742.81;;;14.87;100.00
42105;BME280;68365;51.472;5.712;2023-04-26T06:18:47;101744.28;;;14.89;100.00
42105;BME280;68365;51.472;5.712;2023-04-26T06:21:13;101751.47;;;14.87;100.00
42105;BME280;68365;51.472;5.712;2023-04-26T06:23:39;101744.56;;;14.86;100.00
42105;BME280;68365;51.472;5.712;2023-04-26T06:26:05;101735.28;;;14.84;100.00
42105;BME280;68365;51.472;5.712;2023-04-26T06:28:30;101735.13;;;14.85;100.00
42105;BME280;68365;51.472;5.712;2023-04-26T06:30:56;101738.88;;;14.91;100.00
42105;BME280;68365;51.472;5.712;2023-04-26T06:33:22;101743.28;;;14.91;100.00
42105;BME280;68365;51.472;5.712;2023-04-26T06:35:48;101757.66;;;14.95;100.00
42105;BME280;68365;51.472;5.712;2023-04-26T06:38:14;101755.03;;;14.95;100.00
42105;BME280;68365;51.472;5.712;2023-04-26T06:40:39;101759.47;;;14.94;100.00
42105;BME280;68365;51.472;5.712;2023-04-26T06:43:05;101752.91;;;14.90;100.00
42105;BME280;68365;51.472;5.712;2023-04-26T06:45:31;101763.38;;;14.90;100.00
42105;BME280;68365;51.472;5.712;2023-04-26T06:47:57;101760.25;;;14.86;100.00
42105;BME280;68365;51.472;5.712;2023-04-26T06:50:25;101754.72;;;14.89;100.00
42105;BME280;68365;51.472;5.712;2023-04-26T06:52:51;101770.41;;;14.89;100.00
42105;BME280;68365;51.472;5.712;2023-04-26T06:55:17;101760.28;;;14.95;100.00
42105;BME280;68365;51.472;5.712;2023-04-26T06:57:43;101769.59;;;14.97;100.00
42105;BME280;68365;51.472;5.712;2023-04-26T07:00:09;101768.75;;;14.97;100.00
42105;BME280;68365;51.472;5.712;2023-04-26T07:02:35;101765.19;;;14.98;100.00
42105;BME280;68365;51.472;5.712;2023-04-26T07:05:01;101764.69;;;14.94;100.00
42105;BME280;68365;51.472;5.712;2023-04-26T07:07:27;101767.00;;;14.97;100.00
42105;BME280;68365;51.472;5.712;2023-04-26T07:09:53;101764.69;;;14.94;100.00
42105;BME280;68365;51.472;5.712;2023-04-26T07:12:18;101769.91;;;14.94;100.00
42105;BME280;68365;51.472;5.712;2023-04-26T07:14:45;101767.47;;;14.93;100.00
42105;BME280;68365;51.472;5.712;2023-04-26T07:17:11;101766.50;;;14.94;100.00
42105;BME280;68365;51.472;5.712;2023-04-26T07:19:37;101764.69;;;14.94;100.00
42105;BME280;68365;51.472;5.712;2023-04-26T07:22:03;101768.94;;;14.95;100.00
42105;BME280;68365;51.472;5.712;2023-04-26T07:24:29;101768.75;;;14.97;100.00
42105;BME280;68365;51.472;5.712;2023-04-26T07:26:55;101765.19;;;14.98;100.00
42105;BME280;68365;51.472;5.712;2023-04-26T07:29:21;101766.16;;;14.97;100.00
42105;BME280;68365;51.472;5.712;2023-04-26T07:31:48;101769.59;;;14.97;100.00
42105;BME280;68365;51.472;5.712;2023-04-26T07:34:14;101765.19;;;14.98;100.00
42105;BME280;68365;51.472;5.712;2023-04-26T07:36:39;101765.84;;;15.00;100.00
42105;BME280;68365;51.472;5.712;2023-04-26T07:39:05;101763.88;;;15.02;100.00
42105;BME280;68365;51.472;5.712;2023-04-26T07:41:33;101765.34;;;15.04;100.00
42105;BME280;68365;51.472;5.712;2023-04-26T07:43:59;101757.34;;;15.06;100.00
42105;BME280;68365;51.472;5.712;2023-04-26T07:46:25;101760.13;;;15.04;100.00
42105;BME280;68365;51.472;5.712;2023-04-26T07:48:50;101762.72;;;15.04;100.00
42105;BME280;68365;51.472;5.712;2023-04-26T07:51:16;101764.34;;;14.22;95.97
42105;BME280;68365;51.472;5.712;2023-04-26T07:53:42;101755.53;;;13.80;85.52
42105;BME280;68365;51.472;5.712;2023-04-26T07:56:08;101752.41;;;14.11;94.75
42105;BME280;68365;51.472;5.712;2023-04-26T07:58:37;101752.00;;;14.40;100.00
42105;BME280;68365;51.472;5.712;2023-04-26T08:01:04;101753.91;;;14.73;100.00
42105;BME280;68365;51.472;5.712;2023-04-26T08:03:31;101758.50;;;14.87;100.00
42105;BME280;68365;51.472;5.712;2023-04-26T08:05:57;101751.47;;;14.96;100.00
42105;BME280;68365;51.472;5.712;2023-04-26T08:08:25;101757.00;;;15.01;100.00
42105;BME280;68365;51.472;5.712;2023-04-26T08:10:54;101752.94;;;14.98;100.00
42105;BME280;68365;51.472;5.712;2023-04-26T08:13:22;101754.22;;;15.02;100.00
42105;BME280;68365;51.472;5.712;2023-04-26T08:15:48;101765.34;;;15.04;100.00
42105;BME280;68365;51.472;5.712;2023-04-26T08:18:14;101769.28;;;15.08;100.00
42105;BME280;68365;51.472;5.712;2023-04-26T08:20:40;101774.34;;;15.10;100.00
42105;BME280;68365;51.472;5.712;2023-04-26T08:23:06;101765.19;;;15.06;100.00
42105;BME280;68365;51.472;5.712;2023-04-26T08:25:32;101778.25;;;15.06;100.00
42105;BME280;68365;51.472;5.712;2023-04-26T08:27:59;101789.22;;;15.09;100.00
42105;BME280;68365;51.472;5.712;2023-04-26T08:30:25;101780.22;;;15.12;100.00
42105;BME280;68365;51.472;5.712;2023-04-26T08:32:51;101775.16;;;15.19;100.00
42105;BME280;68365;51.472;5.712;2023-04-26T08:35:17;101779.72;;;15.25;100.00
42105;BME280;68365;51.472;5.712;2023-04-26T08:37:43;101779.56;;;15.26;100.00
42105;BME280;68365;51.472;5.712;2023-04-26T08:40:09;101766.81;;;15.23;100.00
42105;BME280;68365;51.472;5.712;2023-04-26T08:42:42;101766.50;;;15.18;100.00
42105;BME280;68365;51.472;5.712;2023-04-26T08:45:09;101760.47;;;15.18;100.00
42105;BME280;68365;51.472;5.712;2023-04-26T08:47:55;101764.84;;;15.17;100.00
42105;BME280;68365;51.472;5.712;2023-04-26T08:50:24;101767.97;;;15.21;100.00
42105;BME280;68365;51.472;5.712;2023-04-26T08:52:51;101760.59;;;15.24;100.00
42105;BME280;68365;51.472;5.712;2023-04-26T08:55:18;101761.56;;;15.23;100.00
42105;BME280;68365;51.472;5.712;2023-04-26T08:57:49;101768.94;;;15.28;100.00
42105;BME280;68365;51.472;5.712;2023-04-26T09:00:16;101758.66;;;15.26;100.00
42105;BME280;68365;51.472;5.712;2023-04-26T09:02:50;101765.50;;;15.27;100.00
42105;BME280;68365;51.472;5.712;2023-04-26T09:05:18;101769.25;;;15.25;100.00
42105;BME280;68365;51.472;5.712;2023-04-26T09:07:49;101762.06;;;15.27;100.00
42105;BME280;68365;51.472;5.712;2023-04-26T09:10:20;101763.06;;;15.26;100.00
42105;BME280;68365;51.472;5.712;2023-04-26T09:12:53;101758.97;;;15.23;100.00
42105;BME280;68365;51.472;5.712;2023-04-26T09:15:24;101760.91;;;15.21;100.00
42105;BME280;68365;51.472;5.712;2023-04-26T09:17:51;101758.16;;;15.23;100.00
42105;BME280;68365;51.472;5.712;2023-04-26T09:20:26;101754.72;;;15.22;100.00
42105;BME280;68365;51.472;5.712;2023-04-26T09:23:04;101758.97;;;15.23;100.00
42105;BME280;68365;51.472;5.712;2023-04-26T09:25:31;101753.91;;;15.22;100.00
42105;BME280;68365;51.472;5.712;2023-04-26T09:27:58;101753.56;;;15.25;100.00
42105;BME280;68365;51.472;5.712;2023-04-26T09:30:25;101755.69;;;15.21;100.00
42105;BME280;68365;51.472;5.712;2023-04-26T09:32:57;101764.19;;;15.23;100.00
42105;BME280;68365;51.472;5.712;2023-04-26T09:35:30;101753.41;;;15.26;100.00
42105;BME280;68365;51.472;5.712;2023-04-26T09:38:00;101753.25;;;15.28;100.00
42105;BME280;68365;51.472;5.712;2023-04-26T09:40:29;101761.91;;;15.28;100.00
42105;BME280;68365;51.472;5.712;2023-04-26T09:43:04;101748.69;;;15.30;100.00
42105;BME280;68365;51.472;5.712;2023-04-26T09:45:32;101754.56;;;15.32;100.00
42105;BME280;68365;51.472;5.712;2023-04-26T09:48:22;101762.22;;;15.34;100.00
42105;BME280;68365;51.472;5.712;2023-04-26T09:50:52;101761.41;;;15.33;100.00
42105;BME280;68365;51.472;5.712;2023-04-26T09:53:39;101758.13;;;15.47;100.00
42105;BME280;68365;51.472;5.712;2023-04-26T10:01:08;101743.06;;;15.58;100.00
42105;BME280;68365;51.472;5.712;2023-04-26T10:03:36;101749.44;;;15.55;100.00
42105;BME280;68365;51.472;5.712;2023-04-26T10:06:03;101748.47;;;15.48;100.00
42105;BME280;68365;51.472;5.712;2023-04-26T10:08:30;101745.84;;;15.48;100.00
42105;BME280;68365;51.472;5.712;2023-04-26T10:10:58;101742.41;;;15.47;100.00
42105;BME280;68365;51.472;5.712;2023-04-26T10:13:24;101735.56;;;15.46;100.00
42105;BME280;68365;51.472;5.712;2023-04-26T10:15:51;101741.75;;;15.54;100.00
42105;BME280;68365;51.472;5.712;2023-04-26T10:18:18;101737.97;;;15.56;100.00
42105;BME280;68365;51.472;5.712;2023-04-26T10:20:49;101745.34;;;15.61;100.00
42105;BME280;68365;51.472;5.712;2023-04-26T10:23:24;101749.75;;;15.60;100.00
42105;BME280;68365;51.472;5.712;2023-04-26T10:25:51;101742.38;;;15.64;100.00
42105;BME280;68365;51.472;5.712;2023-04-26T10:31:04;101745.16;;;15.62;100.00
42105;BME280;68365;51.472;5.712;2023-04-26T10:33:32;101736.66;;;15.60;100.00
42105;BME280;68365;51.472;5.712;2023-04-26T10:38:35;101736.84;;;15.59;100.00
42105;BME280;68365;51.472;5.712;2023-04-26T10:41:27;101740.59;;;15.73;100.00
42105;BME280;68365;51.472;5.712;2023-04-26T10:43:58;101737.63;;;15.84;100.00
42105;BME280;68365;51.472;5.712;2023-04-26T10:46:34;101729.72;;;15.92;100.00
42105;BME280;68365;51.472;5.712;2023-04-26T10:49:15;101730.41;;;15.86;100.00
42105;BME280;68365;51.472;5.712;2023-04-26T10:52:08;101724.84;;;15.81;100.00
42105;BME280;68365;51.472;5.712;2023-04-26T10:54:59;101724.41;;;15.77;100.00
42105;BME280;68365;51.472;5.712;2023-04-26T10:57:53;101728.75;;;15.85;100.00
42105;BME280;68365;51.472;5.712;2023-04-26T11:00:29;101717.66;;;15.83;100.00
42105;BME280;68365;51.472;5.712;2023-04-26T11:03:05;101716.69;;;15.76;100.00
42105;BME280;68365;51.472;5.712;2023-04-26T11:05:50;101710.66;;;15.75;100.00
42105;BME280;68365;51.472;5.712;2023-04-26T11:08:32;101715.38;;;15.72;100.00
42105;BME280;68365;51.472;5.712;2023-04-26T11:11:06;101719.81;;;15.71;100.00
42105;BME280;68365;51.472;5.712;2023-04-26T11:13:42;101722.59;;;15.69;100.00
42105;BME280;68365;51.472;5.712;2023-04-26T11:16:10;101715.06;;;15.75;100.00
42105;BME280;68365;51.472;5.712;2023-04-26T11:18:39;101713.72;;;15.70;100.00
42105;BME280;68365;51.472;5.712;2023-04-26T11:21:05;101712.63;;;15.73;100.00
42105;BME280;68365;51.472;5.712;2023-04-26T11:23:32;101709.34;;;15.71;100.00
42105;BME280;68365;51.472;5.712;2023-04-26T11:25:59;101712.13;;;15.69;100.00
42105;BME280;68365;51.472;5.712;2023-04-26T11:28:31;101710.66;;;15.67;100.00
42105;BME280;68365;51.472;5.712;2023-04-26T11:30:58;101707.19;;;15.66;100.00
42105;BME280;68365;51.472;5.712;2023-04-26T11:33:24;101706.56;;;15.64;100.00
42105;BME280;68365;51.472;5.712;2023-04-26T11:35:51;101714.09;;;15.67;100.00
42105;BME280;68365;51.472;5.712;2023-04-26T11:38:24;101707.41;;;15.73;100.00
42105;BME280;68365;51.472;5.712;2023-04-26T11:41:01;101699.69;;;15.72;100.00
42105;BME280;68365;51.472;5.712;2023-04-26T11:43:40;101699.69;;;15.72;100.00
42105;BME280;68365;51.472;5.712;2023-04-26T11:46:07;101702.16;;;15.73;100.00
42105;BME280;68365;51.472;5.712;2023-04-26T11:48:35;101692.50;;;15.74;100.00
42105;BME280;68365;51.472;5.712;2023-04-26T11:51:03;101689.88;;;15.74;100.00
42105;BME280;68365;51.472;5.712;2023-04-26T11:53:41;101693.78;;;15.78;100.00
42105;BME280;68365;51.472;5.712;2023-04-26T11:56:18;101692.63;;;15.80;100.00
42105;BME280;68365;51.472;5.712;2023-04-26T11:58:50;101698.66;;;15.81;100.00
42105;BME280;68365;51.472;5.712;2023-04-26T12:01:27;101688.19;;;15.81;100.00
42105;BME280;68365;51.472;5.712;2023-04-26T12:03:58;101692.16;;;15.77;100.00
42105;BME280;68365;51.472;5.712;2023-04-26T12:06:41;101691.97;;;15.78;100.00
42105;BME280;68365;51.472;5.712;2023-04-26T12:09:07;101692.97;;;15.77;100.00
42105;BME280;68365;51.472;5.712;2023-04-26T12:11:36;101697.22;;;15.78;100.00
42105;BME280;68365;51.472;5.712;2023-04-26T12:14:03;101699.84;;;15.78;100.00
42105;BME280;68365;51.472;5.712;2023-04-26T12:16:29;101691.34;;;15.76;100.00
42105;BME280;68365;51.472;5.712;2023-04-26T12:18:55;101696.56;;;15.76;100.00
42105;BME280;68365;51.472;5.712;2023-04-26T12:21:22;101699.19;;;15.76;100.00
42105;BME280;68365;51.472;5.712;2023-04-26T12:23:49;101700.16;;;15.83;100.00
42105;BME280;68365;51.472;5.712;2023-04-26T12:26:15;101699.31;;;15.83;100.00
42105;BME280;68365;51.472;5.712;2023-04-26T12:28:43;101698.00;;;15.87;100.00
42105;BME280;68365;51.472;5.712;2023-04-26T12:31:08;101691.13;;;15.86;100.00
42105;BME280;68365;51.472;5.712;2023-04-26T12:33:35;101688.00;;;15.91;100.00
42105;BME280;68365;51.472;5.712;2023-04-26T12:36:11;101703.19;;;15.95;100.00
42105;BME280;68365;51.472;5.712;2023-04-26T12:38:38;101687.34;;;15.88;100.00
42105;BME280;68365;51.472;5.712;2023-04-26T12:41:04;101701.44;;;15.87;100.00
42105;BME280;68365;51.472;5.712;2023-04-26T12:43:30;101699.81;;;15.86;100.00
42105;BME280;68365;51.472;5.712;2023-04-26T12:45:56;101694.44;;;15.80;100.00
42105;BME280;68365;51.472;5.712;2023-04-26T12:48:22;101699.63;;;15.88;100.00
42105;BME280;68365;51.472;5.712;2023-04-26T12:50:48;101698.03;;;15.79;100.00
42105;BME280;68365;51.472;5.712;2023-04-26T12:53:14;101695.25;;;15.80;100.00